createdAt,value
2023-04-08T00:02:29.106Z,99.90
2023-04-08T00:05:17.825Z,99.90
2023-04-08T00:08:06.963Z,99.90
2023-04-08T00:10:55.729Z,99.90
2023-04-08T00:13:44.322Z,99.90
2023-04-08T00:16:33.024Z,99.90
2023-04-08T00:19:23.031Z,99.90
2023-04-08T00:22:11.892Z,99.90
2023-04-08T00:25:00.478Z,99.90
2023-04-08T00:27:49.055Z,99.90
2023-04-08T00:30:38.330Z,99.90
2023-04-08T00:33:26.990Z,99.90
2023-04-08T00:36:16.993Z,99.90
2023-04-08T00:39:06.978Z,99.90
2023-04-08T00:41:56.378Z,99.90
2023-04-08T00:44:44.984Z,99.90
2023-04-08T00:47:33.628Z,99.90
2023-04-08T00:50:22.550Z,99.90
2023-04-08T00:53:13.752Z,99.90
2023-04-08T00:56:02.312Z,99.90
2023-04-08T00:58:53.829Z,99.90
2023-04-08T01:01:49.330Z,99.90
2023-04-08T01:04:50.952Z,99.90
2023-04-08T01:07:44.405Z,99.90
2023-04-08T01:10:38.420Z,99.90
2023-04-08T01:13:29.278Z,99.90
2023-04-08T01:16:19.258Z,99.90
2023-04-08T01:19:10.308Z,99.90
2023-04-08T01:22:06.806Z,99.90
2023-04-08T01:25:02.449Z,99.90
2023-04-08T01:27:56.522Z,99.90
2023-04-08T01:30:47.890Z,99.90
2023-04-08T01:33:37.992Z,99.90
2023-04-08T01:36:28.023Z,99.90
2023-04-08T01:39:17.976Z,99.90
2023-04-08T01:42:06.999Z,99.90
2023-04-08T01:44:58.724Z,99.90
2023-04-08T01:47:48.615Z,99.90
2023-04-08T01:50:37.819Z,99.90
2023-04-08T01:53:26.487Z,99.90
2023-04-08T01:56:17.087Z,99.90
2023-04-08T01:59:11.070Z,99.90
2023-04-08T02:02:03.557Z,99.90
2023-04-08T02:04:52.272Z,99.90
2023-04-08T02:07:40.901Z,99.90
2023-04-08T02:10:29.600Z,99.90
2023-04-08T02:13:18.210Z,99.90
2023-04-08T02:16:14.998Z,99.90
2023-04-08T02:19:13.340Z,99.90
2023-04-08T02:22:10.836Z,99.90
2023-04-08T02:25:00.950Z,99.90
2023-04-08T02:27:50.175Z,99.90
2023-04-08T02:30:40.291Z,99.90
2023-04-08T02:33:29.832Z,99.90
2023-04-08T02:36:20.531Z,99.90
2023-04-08T02:39:09.210Z,99.90
2023-04-08T02:41:57.756Z,99.90
2023-04-08T02:44:46.440Z,99.90
2023-04-08T02:47:35.002Z,99.90
2023-04-08T02:50:23.757Z,99.90
2023-04-08T02:53:13.752Z,99.90
2023-04-08T02:56:02.325Z,99.90
2023-04-08T02:58:52.387Z,99.90
2023-04-08T03:01:41.073Z,99.90
2023-04-08T03:04:29.686Z,99.90
2023-04-08T03:07:18.207Z,99.90
2023-04-08T03:10:09.769Z,99.90
2023-04-08T03:12:58.393Z,99.90
2023-04-08T03:15:47.068Z,99.90
2023-04-08T03:18:35.718Z,99.90
2023-04-08T03:21:24.724Z,99.90
2023-04-08T03:24:13.348Z,99.90
2023-04-08T03:27:03.373Z,99.90
2023-04-08T03:29:53.221Z,99.90
2023-04-08T03:32:42.020Z,99.90
2023-04-08T03:35:30.744Z,99.90
2023-04-08T03:38:19.355Z,99.90
2023-04-08T03:41:07.909Z,99.90
2023-04-08T03:43:57.922Z,99.90
2023-04-08T03:46:46.555Z,99.90
2023-04-08T03:49:35.155Z,99.90
2023-04-08T03:52:24.054Z,99.90
2023-04-08T03:55:12.661Z,99.90
2023-04-08T03:58:01.223Z,99.90
2023-04-08T04:00:51.630Z,99.90
2023-04-08T04:03:40.337Z,99.90
2023-04-08T04:06:28.990Z,99.90
2023-04-08T04:09:17.993Z,99.90
2023-04-08T04:12:06.798Z,99.90
2023-04-08T04:14:55.812Z,99.90
2023-04-08T04:17:45.760Z,99.90
2023-04-08T04:20:34.365Z,99.90
2023-04-08T04:23:24.445Z,99.90
2023-04-08T04:26:13.393Z,99.90
2023-04-08T04:29:01.977Z,99.90
2023-04-08T04:31:50.826Z,99.90
2023-04-08T04:34:40.811Z,99.90
2023-04-08T04:37:29.347Z,99.90
2023-04-08T04:40:17.964Z,99.90
2023-04-08T04:43:06.614Z,99.90
2023-04-08T04:45:55.293Z,99.90
2023-04-08T04:48:43.924Z,99.90
2023-04-08T04:51:34.575Z,99.90
2023-04-08T04:54:23.173Z,99.90
2023-04-08T04:57:11.856Z,99.90
2023-04-08T05:00:01.332Z,99.90
2023-04-08T05:02:50.938Z,99.90
2023-04-08T05:05:39.685Z,99.90
2023-04-08T05:08:29.642Z,99.90
2023-04-08T05:11:18.527Z,99.90
2023-04-08T05:14:07.319Z,99.90
2023-04-08T05:16:55.859Z,99.90
2023-04-08T05:19:44.461Z,99.90
2023-04-08T05:22:33.074Z,99.90
2023-04-08T05:25:23.084Z,99.90
2023-04-08T05:28:11.655Z,99.90
2023-04-08T05:31:00.287Z,99.90
2023-04-08T05:33:49.019Z,99.90
2023-04-08T05:36:37.591Z,99.90
2023-04-08T05:39:26.523Z,99.90
2023-04-08T05:42:16.506Z,99.90
2023-04-08T05:45:05.595Z,99.90
2023-04-08T05:47:54.176Z,99.90
2023-04-08T05:50:43.217Z,99.90
2023-04-08T05:53:31.830Z,99.90
2023-04-08T05:56:21.090Z,99.90
2023-04-08T05:59:11.093Z,99.90
2023-04-08T06:01:59.786Z,99.90
2023-04-08T06:04:48.539Z,99.90
2023-04-08T06:07:37.133Z,99.90
2023-04-08T06:10:25.792Z,99.90
2023-04-08T06:13:14.317Z,99.90
2023-04-08T06:16:13.988Z,99.90
2023-04-08T06:19:02.640Z,99.90
2023-04-08T06:21:51.677Z,99.90
2023-04-08T06:24:40.288Z,99.90
2023-04-08T06:27:29.092Z,99.90
2023-04-08T06:30:17.811Z,99.90
2023-04-08T06:33:07.782Z,99.90
2023-04-08T06:36:04.212Z,99.90
2023-04-08T06:38:52.900Z,99.90
2023-04-08T06:41:41.608Z,99.80
2023-04-08T06:44:30.222Z,86.50
2023-04-08T06:47:18.822Z,78.30
2023-04-08T06:50:09.873Z,71.50
2023-04-08T06:52:58.477Z,67.80
2023-04-08T06:55:47.022Z,57.30
2023-04-08T06:58:35.760Z,61.50
2023-04-08T07:01:25.169Z,55.90
2023-04-08T07:04:13.800Z,54.70
2023-04-08T07:07:04.989Z,49.90
2023-04-08T07:09:53.687Z,49.50
2023-04-08T07:12:42.271Z,52.00
2023-04-08T07:15:30.969Z,54.30
2023-04-08T07:18:19.522Z,64.40
2023-04-08T07:21:08.624Z,70.10
2023-04-08T07:23:58.643Z,72.50
2023-04-08T07:26:47.874Z,79.50
2023-04-08T07:29:36.467Z,84.10
2023-04-08T07:32:25.079Z,84.90
2023-04-08T07:35:13.894Z,84.90
2023-04-08T07:38:02.426Z,85.60
2023-04-08T07:40:52.415Z,86.40
2023-04-08T07:43:41.025Z,88.70
2023-04-08T07:46:29.723Z,91.50
2023-04-08T07:49:18.529Z,92.90
2023-04-08T07:52:07.213Z,94.70
2023-04-08T07:54:56.137Z,94.20
2023-04-08T07:57:46.211Z,96.80
2023-04-08T08:00:35.064Z,97.50
2023-04-08T08:03:23.768Z,98.30
2023-04-08T08:06:13.055Z,99.60
2023-04-08T08:09:01.970Z,98.60
2023-04-08T08:11:50.578Z,98.80
2023-04-08T08:14:40.767Z,97.10
2023-04-08T08:17:31.203Z,96.10
2023-04-08T08:20:19.951Z,98.60
2023-04-08T08:23:08.493Z,94.70
2023-04-08T08:26:01.927Z,96.20
2023-04-08T08:28:50.488Z,94.20
2023-04-08T08:31:40.497Z,95.90
2023-04-08T08:34:29.116Z,94.80
2023-04-08T08:37:17.751Z,95.30
2023-04-08T08:40:07.306Z,94.00
2023-04-08T08:42:57.448Z,94.40
2023-04-08T08:45:46.174Z,95.10
2023-04-08T08:48:38.761Z,94.30
2023-04-08T08:51:29.137Z,93.50
2023-04-08T08:54:17.685Z,93.80
2023-04-08T08:57:06.264Z,92.40
2023-04-08T08:59:55.037Z,91.60
2023-04-08T09:02:43.992Z,90.90
2023-04-08T09:05:48.348Z,91.80
2023-04-08T09:08:37.916Z,89.90
2023-04-08T09:11:27.287Z,88.30
2023-04-08T09:14:22.785Z,89.70
2023-04-08T09:17:11.767Z,83.40
2023-04-08T09:20:10.002Z,86.60
2023-04-08T09:23:02.499Z,86.40
2023-04-08T09:25:51.435Z,88.50
2023-04-08T09:28:41.123Z,86.80
2023-04-08T09:31:31.477Z,83.30
2023-04-08T09:34:21.945Z,86.30
2023-04-08T09:37:10.605Z,85.50
2023-04-08T09:40:00.570Z,86.80
2023-04-08T09:42:52.553Z,86.90
2023-04-08T09:45:42.838Z,82.40
2023-04-08T09:48:38.561Z,78.70
2023-04-08T09:51:31.201Z,75.50
2023-04-08T09:54:23.905Z,71.70
2023-04-08T09:57:17.632Z,66.80
2023-04-08T10:00:11.109Z,66.90
2023-04-08T10:03:11.565Z,68.40
2023-04-08T10:06:02.351Z,66.90
2023-04-08T10:08:51.110Z,68.30
2023-04-08T10:11:39.835Z,70.10
2023-04-08T10:14:29.810Z,72.40
2023-04-08T10:17:28.832Z,70.10
2023-04-08T10:20:42.636Z,63.10
2023-04-08T10:23:57.804Z,64.70
2023-04-08T10:26:48.944Z,58.40
2023-04-08T10:29:38.934Z,52.80
2023-04-08T10:32:31.317Z,54.20
2023-04-08T10:35:29.980Z,54.30
2023-04-08T10:38:21.112Z,52.90
2023-04-08T10:41:11.381Z,57.80
2023-04-08T10:43:59.999Z,53.10
2023-04-08T10:46:51.461Z,48.70
2023-04-08T10:49:41.770Z,54.40
2023-04-08T10:52:30.556Z,54.40
2023-04-08T10:55:24.814Z,54.50
2023-04-08T10:58:13.823Z,58.80
2023-04-08T11:01:06.812Z,49.60
2023-04-08T11:03:57.280Z,51.50
2023-04-08T11:06:47.009Z,56.30
2023-04-08T11:09:36.084Z,54.80
2023-04-08T11:12:24.711Z,56.20
2023-04-08T11:15:15.279Z,58.70
2023-04-08T11:18:04.918Z,56.70
2023-04-08T11:20:55.381Z,56.20
2023-04-08T11:23:44.157Z,55.90
2023-04-08T11:26:33.350Z,57.00
2023-04-08T11:29:22.436Z,55.10
2023-04-08T11:32:11.028Z,55.10
2023-04-08T11:35:01.766Z,52.00
2023-04-08T11:37:54.542Z,47.10
2023-04-08T11:40:54.604Z,46.40
2023-04-08T11:43:53.176Z,39.70
2023-04-08T11:46:42.477Z,37.00
2023-04-08T11:49:45.860Z,30.70
2023-04-08T11:52:47.778Z,34.50
2023-04-08T11:55:37.850Z,29.20
2023-04-08T11:58:26.495Z,28.10
2023-04-08T12:01:15.855Z,27.30
2023-04-08T12:04:05.011Z,24.40
2023-04-08T12:06:54.119Z,19.10
2023-04-08T12:09:46.290Z,17.00
2023-04-08T12:12:37.453Z,22.60
2023-04-08T12:18:01.594Z,12.90
2023-04-08T12:20:50.221Z,12.80
2023-04-08T12:23:38.822Z,13.90
2023-04-08T12:26:27.927Z,9.30
2023-04-08T12:29:17.891Z,7.90
2023-04-08T12:32:06.742Z,6.20
2023-04-08T12:34:56.049Z,1.80
2023-04-08T12:37:44.602Z,2.00
2023-04-08T12:40:53.596Z,1.00
2023-04-08T12:43:42.170Z,2.50
2023-04-08T12:46:32.205Z,4.10
2023-04-08T12:49:20.865Z,8.00
2023-04-08T12:52:09.757Z,9.30
2023-04-08T12:54:58.326Z,6.80
2023-04-08T13:01:10.127Z,1.00
2023-04-08T13:04:00.558Z,3.00
2023-04-08T13:06:49.431Z,1.00
2023-04-08T13:09:38.559Z,1.00
2023-04-08T13:12:27.368Z,5.40
2023-04-08T13:15:16.604Z,7.00
2023-04-08T13:18:06.001Z,8.70
2023-04-08T13:20:56.086Z,7.40
2023-04-08T13:23:44.774Z,8.40
2023-04-08T13:26:35.397Z,11.60
2023-04-08T13:29:24.025Z,10.60
2023-04-08T13:32:12.701Z,11.90
2023-04-08T13:35:01.527Z,13.80
2023-04-08T13:37:51.489Z,13.70
2023-04-08T13:40:40.384Z,14.40
2023-04-08T13:43:29.444Z,17.10
2023-04-08T13:46:18.272Z,16.10
2023-04-08T13:49:07.106Z,18.30
2023-04-08T13:51:55.991Z,19.00
2023-04-08T13:54:46.215Z,18.70
2023-04-08T13:57:34.832Z,17.30
2023-04-08T14:00:25.498Z,14.70
2023-04-08T14:03:14.115Z,16.70
2023-04-08T14:06:03.691Z,15.60
2023-04-08T14:08:57.708Z,16.10
2023-04-08T14:11:48.643Z,17.70
2023-04-08T14:14:37.552Z,16.40
2023-04-08T14:18:01.735Z,17.90
2023-04-08T14:20:51.611Z,16.80
2023-04-08T14:26:51.529Z,17.50
2023-04-08T14:29:47.288Z,20.70
2023-04-08T14:32:37.407Z,22.70
2023-04-08T14:35:26.409Z,22.00
2023-04-08T14:41:20.362Z,24.10
2023-04-08T14:44:10.772Z,27.60
2023-04-08T14:46:59.695Z,33.80
2023-04-08T14:49:48.948Z,32.70
2023-04-08T14:52:39.053Z,34.10
2023-04-08T14:55:28.824Z,37.80
2023-04-08T14:58:17.796Z,37.00
2023-04-08T15:01:13.106Z,37.70
2023-04-08T15:04:02.061Z,36.40
2023-04-08T15:06:51.745Z,37.60
2023-04-08T15:09:40.831Z,39.50
2023-04-08T15:12:30.656Z,39.50
2023-04-08T15:15:21.137Z,39.60
2023-04-08T15:18:12.271Z,37.90
2023-04-08T15:21:01.460Z,38.10
2023-04-08T15:23:51.855Z,39.30
2023-04-08T15:26:42.675Z,40.40
2023-04-08T15:29:50.331Z,44.70
2023-04-08T15:32:39.323Z,44.30
2023-04-08T15:35:30.851Z,48.80
2023-04-08T15:38:20.162Z,51.90
2023-04-08T15:41:17.106Z,49.30
2023-04-08T15:44:06.728Z,48.10
2023-04-08T15:47:08.184Z,48.50
2023-04-08T15:49:57.614Z,47.80
2023-04-08T15:52:49.079Z,42.10
2023-04-08T15:55:47.446Z,41.30
2023-04-08T15:58:36.924Z,36.30
2023-04-08T16:01:26.100Z,36.10
2023-04-08T16:04:30.299Z,36.30
2023-04-08T16:07:38.476Z,41.00
2023-04-08T16:10:34.911Z,40.30
2023-04-08T16:13:36.140Z,42.80
2023-04-08T16:16:25.054Z,45.10
2023-04-08T16:19:13.859Z,44.80
2023-04-08T16:22:02.749Z,46.00
2023-04-08T16:24:53.421Z,47.40
2023-04-08T16:27:43.795Z,48.30
2023-04-08T16:30:32.765Z,48.90
2023-04-08T16:36:36.565Z,51.80
2023-04-08T16:39:25.817Z,55.60
2023-04-08T16:42:14.968Z,57.60
2023-04-08T16:45:06.068Z,57.60
2023-04-08T16:48:04.421Z,57.90
2023-04-08T16:50:53.535Z,59.80
2023-04-08T16:53:42.755Z,59.90
2023-04-08T16:56:31.819Z,60.60
2023-04-08T16:59:21.047Z,62.10
2023-04-08T17:02:11.488Z,65.30
2023-04-08T17:05:00.835Z,64.50
2023-04-08T17:07:49.725Z,65.60
2023-04-08T17:10:38.834Z,65.00
2023-04-08T17:13:27.778Z,66.10
2023-04-08T17:16:17.840Z,67.20
2023-04-08T17:19:08.243Z,67.70
2023-04-08T17:21:57.104Z,68.20
2023-04-08T17:24:47.949Z,69.30
2023-04-08T17:27:37.394Z,69.50
2023-04-08T17:30:26.336Z,69.90
2023-04-08T17:33:15.756Z,70.80
2023-04-08T17:36:07.008Z,72.00
2023-04-08T17:38:55.988Z,72.20
2023-04-08T17:41:46.063Z,73.50
2023-04-08T17:44:35.049Z,74.40
2023-04-08T17:47:24.012Z,74.20
2023-04-08T17:50:13.164Z,74.80
2023-04-08T17:53:03.512Z,75.40
2023-04-08T17:55:52.476Z,75.70
2023-04-08T17:58:41.590Z,76.40
2023-04-08T18:01:30.661Z,77.40
2023-04-08T18:04:19.691Z,77.70
2023-04-08T18:07:08.734Z,79.70
2023-04-08T18:09:59.048Z,81.20
2023-04-08T18:12:50.550Z,81.60
2023-04-08T18:15:40.078Z,82.80
2023-04-08T18:18:29.030Z,82.30
2023-04-08T18:21:18.993Z,83.40
2023-04-08T18:24:09.301Z,84.40
2023-04-08T19:22:30.285Z,96.10
2023-04-08T19:25:19.566Z,97.70
2023-04-08T19:28:09.433Z,98.30
2023-04-08T19:30:59.822Z,99.00
2023-04-08T19:33:49.263Z,99.90
2023-04-08T19:36:38.378Z,99.50
2023-04-08T19:39:28.986Z,99.80
2023-04-08T19:42:19.426Z,99.60
2023-04-08T19:45:11.012Z,99.30
2023-04-08T19:48:00.179Z,99.90
2023-04-08T19:50:51.046Z,99.90
2023-04-08T19:53:43.636Z,99.90
2023-04-08T20:00:52.249Z,99.90
2023-04-08T20:39:04.257Z,99.90
2023-04-08T20:42:41.961Z,99.90
2023-04-08T20:46:02.133Z,99.90
2023-04-08T20:59:56.378Z,95.20
2023-04-08T22:20:17.234Z,71.00
2023-04-08T22:23:10.218Z,69.30
2023-04-08T22:26:00.260Z,69.80
2023-04-08T22:28:51.003Z,69.40
2023-04-08T22:31:43.576Z,68.00
2023-04-08T22:34:38.643Z,69.60
2023-04-08T22:37:30.918Z,70.20
2023-04-08T22:40:21.167Z,69.90
2023-04-08T22:43:09.796Z,71.20
2023-04-08T22:46:04.689Z,71.00
2023-04-08T22:48:53.598Z,71.00
2023-04-08T22:51:43.106Z,71.40
2023-04-08T22:54:33.411Z,70.80
2023-04-08T22:57:22.631Z,70.90
2023-04-08T23:00:12.537Z,70.90
2023-04-08T23:03:04.929Z,72.70
2023-04-08T23:05:53.924Z,73.90
2023-04-08T23:08:42.991Z,75.30
2023-04-08T23:11:33.976Z,72.20
2023-04-08T23:14:23.031Z,72.40
2023-04-08T23:17:12.175Z,70.00
2023-04-08T23:20:01.210Z,71.80
2023-04-08T23:22:50.261Z,71.10
2023-04-08T23:25:39.179Z,71.80
2023-04-08T23:28:34.390Z,72.90
2023-04-08T23:31:28.329Z,71.70
2023-04-08T23:34:18.727Z,72.10
2023-04-08T23:37:10.759Z,73.60
2023-04-08T23:40:03.489Z,72.30
2023-04-08T23:42:54.100Z,72.70
2023-04-08T23:45:56.193Z,71.90
2023-04-08T23:48:49.429Z,70.40
2023-04-08T23:52:04.310Z,70.90
2023-04-08T23:54:54.237Z,70.80
2023-04-08T23:57:47.402Z,70.20
